createdAt,value
2019-03-16T00:02:08.602Z,99953.28
2019-03-16T00:04:37.757Z,99952.53
2019-03-16T00:07:06.945Z,99952.36
2019-03-16T00:09:36.177Z,99948.88
2019-03-16T00:12:05.493Z,99960.91
2019-03-16T00:14:34.657Z,99955.76
2019-03-16T00:17:03.783Z,99958.44
2019-03-16T00:19:33.115Z,99957.52
2019-03-16T00:22:02.192Z,99961.75
2019-03-16T00:24:31.480Z,99961.54
2019-03-16T00:27:00.555Z,99958.14
2019-03-16T00:29:29.897Z,99962.16
2019-03-16T00:32:12.545Z,99954.95
2019-03-16T00:34:30.252Z,99956.47
2019-03-16T00:36:59.860Z,99966.48
2019-03-16T00:39:29.126Z,99957.01
2019-03-16T00:41:58.370Z,99946.70
2019-03-16T00:44:27.458Z,99954.83
2019-03-16T00:46:56.771Z,99952.45
2019-03-16T00:49:25.899Z,99945.44
2019-03-16T00:51:55.377Z,99942.46
2019-03-16T00:54:24.662Z,99948.03
2019-03-16T00:56:56.126Z,99941.20
2019-03-16T00:59:25.453Z,99949.88
2019-03-16T01:01:56.891Z,99954.63
2019-03-16T01:04:26.204Z,99955.84
2019-03-16T01:06:55.301Z,99960.08
2019-03-16T01:09:24.392Z,99947.91
2019-03-16T01:11:55.434Z,99952.77
2019-03-16T01:14:24.666Z,99951.73
2019-03-16T01:16:54.048Z,99953.79
2019-03-16T01:19:23.140Z,99960.29
2019-03-16T01:21:52.533Z,99957.22
2019-03-16T01:24:22.005Z,99952.39
2019-03-16T01:26:51.280Z,99953.19
2019-03-16T01:29:20.378Z,99965.98
2019-03-16T01:31:49.399Z,99959.81
2019-03-16T01:34:18.616Z,99951.77
2019-03-16T01:36:47.743Z,99952.69
2019-03-16T01:39:16.841Z,99944.22
2019-03-16T01:41:46.028Z,99953.19
2019-03-16T01:44:15.360Z,99947.23
2019-03-16T01:46:44.556Z,99951.97
2019-03-16T01:49:13.812Z,99946.52
2019-03-16T01:51:43.055Z,99949.91
2019-03-16T01:54:12.142Z,99944.25
2019-03-16T01:56:41.524Z,99950.75
2019-03-16T01:59:10.780Z,99955.78
2019-03-16T02:01:40.223Z,99943.62
2019-03-16T02:04:09.235Z,99950.41
2019-03-16T02:06:38.342Z,99958.48
2019-03-16T02:09:08.456Z,99961.69
2019-03-16T02:11:37.737Z,99958.16
2019-03-16T02:14:06.830Z,99961.05
2019-03-16T02:16:36.055Z,99957.56
2019-03-16T02:19:05.489Z,99949.93
2019-03-16T02:21:34.971Z,99954.16
2019-03-16T02:24:04.243Z,99949.00
2019-03-16T02:26:33.328Z,99949.00
2019-03-16T02:29:02.558Z,99948.59
2019-03-16T02:31:31.600Z,99945.39
2019-03-16T02:34:00.900Z,99953.23
2019-03-16T02:36:29.997Z,99945.80
2019-03-16T02:38:59.222Z,99957.25
2019-03-16T02:41:28.582Z,99944.77
2019-03-16T02:43:57.734Z,99945.51
2019-03-16T02:46:26.821Z,99943.01
2019-03-16T02:48:56.137Z,99942.63
2019-03-16T02:51:25.362Z,99935.08
2019-03-16T02:53:54.428Z,99942.41
2019-03-16T02:56:23.695Z,99951.17
2019-03-16T02:58:53.000Z,99949.94
2019-03-16T03:01:22.102Z,99961.59
2019-03-16T03:03:51.609Z,99952.42
2019-03-16T03:06:20.648Z,99956.73
2019-03-16T03:08:49.940Z,99959.94
2019-03-16T03:11:19.077Z,99956.95
2019-03-16T03:13:48.168Z,99954.80
2019-03-16T03:16:17.523Z,99956.12
2019-03-16T03:18:49.560Z,99954.57
2019-03-16T03:21:18.033Z,99947.77
2019-03-16T03:23:47.123Z,99959.12
2019-03-16T03:26:16.248Z,99948.58
2019-03-16T03:28:45.571Z,99946.64
2019-03-16T03:31:14.790Z,99953.14
2019-03-16T03:33:58.932Z,99944.28
2019-03-16T03:36:16.792Z,99941.69
2019-03-16T03:38:45.925Z,99944.78
2019-03-16T03:41:15.042Z,99941.39
2019-03-16T03:43:44.081Z,99938.38
2019-03-16T03:46:13.209Z,99941.90
2019-03-16T03:48:42.321Z,99934.16
2019-03-16T03:51:11.697Z,99922.91
2019-03-16T03:53:41.501Z,99937.05
2019-03-16T03:56:10.841Z,99937.17
2019-03-16T03:58:40.306Z,99937.38
2019-03-16T04:01:09.401Z,99937.77
2019-03-16T04:03:38.628Z,99931.06
2019-03-16T04:06:07.890Z,99929.81
2019-03-16T04:08:37.000Z,99930.44
2019-03-16T04:11:06.265Z,99931.06
2019-03-16T04:13:35.327Z,99928.08
2019-03-16T04:16:04.684Z,99931.48
2019-03-16T04:18:33.933Z,99929.19
2019-03-16T04:21:03.357Z,99924.45
2019-03-16T04:23:32.436Z,99933.83
2019-03-16T04:26:01.664Z,99925.16
2019-03-16T04:28:30.770Z,99934.67
2019-03-16T04:31:00.039Z,99927.55
2019-03-16T04:33:29.512Z,99933.64
2019-03-16T04:35:58.573Z,99930.09
2019-03-16T04:38:27.800Z,99936.17
2019-03-16T04:40:56.860Z,99932.98
2019-03-16T04:43:26.190Z,99935.37
2019-03-16T04:45:55.257Z,99935.55
2019-03-16T04:48:24.562Z,99943.50
2019-03-16T04:50:53.798Z,99937.93
2019-03-16T04:53:23.013Z,99940.28
2019-03-16T04:55:52.314Z,99948.88
2019-03-16T04:58:21.465Z,99939.48
2019-03-16T05:00:50.611Z,99939.16
2019-03-16T05:03:20.030Z,99940.20
2019-03-16T05:05:49.110Z,99936.68
2019-03-16T05:08:18.625Z,99939.27
2019-03-16T05:10:47.905Z,99935.75
2019-03-16T05:13:19.255Z,99940.11
2019-03-16T05:15:50.932Z,99946.51
2019-03-16T05:18:19.344Z,99950.33
2019-03-16T05:20:48.629Z,99951.37
2019-03-16T05:23:17.926Z,99960.24
2019-03-16T05:25:47.013Z,99961.05
2019-03-16T05:28:16.070Z,99963.22
2019-03-16T05:30:45.266Z,99972.52
2019-03-16T05:33:14.582Z,99976.96
2019-03-16T05:35:45.621Z,99984.07
2019-03-16T05:38:15.044Z,99981.27
2019-03-16T05:40:44.186Z,99983.45
2019-03-16T05:43:13.350Z,99981.60
2019-03-16T05:45:42.641Z,99983.88
2019-03-16T05:48:11.760Z,99990.04
2019-03-16T05:50:41.248Z,99988.19
2019-03-16T05:53:10.297Z,99992.42
2019-03-16T05:55:39.381Z,99989.74
2019-03-16T05:58:08.770Z,99994.80
2019-03-16T06:00:37.841Z,99987.77
2019-03-16T06:03:07.114Z,99989.23
2019-03-16T06:05:36.274Z,99991.50
2019-03-16T06:08:05.422Z,99992.42
2019-03-16T06:10:34.768Z,99984.47
2019-03-16T06:13:03.845Z,99994.39
2019-03-16T06:15:33.101Z,99993.05
2019-03-16T06:18:02.535Z,99984.06
2019-03-16T06:20:31.586Z,99998.09
2019-03-16T06:23:00.885Z,99999.34
2019-03-16T06:25:30.102Z,100002.53
2019-03-16T06:27:59.207Z,99993.75
2019-03-16T06:30:28.765Z,100001.70
2019-03-16T06:32:57.856Z,99996.86
2019-03-16T06:35:29.410Z,99999.75
2019-03-16T06:37:57.875Z,99987.97
2019-03-16T06:40:27.496Z,99999.63
2019-03-16T06:42:56.548Z,99999.63
2019-03-16T06:45:26.070Z,100002.62
2019-03-16T06:47:55.350Z,100007.89
2019-03-16T06:50:24.453Z,100008.48
2019-03-16T06:52:53.514Z,100017.77
2019-03-16T06:55:22.617Z,100011.39
2019-03-16T06:57:51.830Z,100019.31
2019-03-16T07:00:21.135Z,100018.06
2019-03-16T07:02:50.496Z,100024.69
2019-03-16T07:05:23.309Z,100023.14
2019-03-16T07:07:50.420Z,100024.16
2019-03-16T07:10:19.480Z,100035.01
2019-03-16T07:12:48.588Z,100024.95
2019-03-16T07:15:17.833Z,100030.12
2019-03-16T07:17:46.923Z,100042.20
2019-03-16T07:20:16.106Z,100036.73
2019-03-16T07:22:45.208Z,100050.87
2019-03-16T07:25:14.498Z,100043.45
2019-03-16T07:27:43.617Z,100040.02
2019-03-16T07:30:13.002Z,100046.64
2019-03-16T07:32:42.082Z,100044.05
2019-03-16T07:35:11.276Z,100047.45
2019-03-16T07:37:40.346Z,100049.95
2019-03-16T07:40:09.953Z,100047.56
2019-03-16T07:42:39.173Z,100046.64
2019-03-16T07:45:09.282Z,100034.47
2019-03-16T07:47:38.369Z,100056.45
2019-03-16T07:50:07.634Z,100054.19
2019-03-16T07:52:36.838Z,100062.54
2019-03-16T07:55:06.493Z,100069.25
2019-03-16T07:57:40.372Z,100063.38
2019-03-16T08:00:07.322Z,100072.95
2019-03-16T08:02:36.753Z,100081.22
2019-03-16T08:05:17.484Z,100079.12
2019-03-16T08:07:37.146Z,100085.66
2019-03-16T08:10:06.803Z,100083.06
2019-03-16T08:12:35.932Z,100093.80
2019-03-16T08:15:05.599Z,100086.16
2019-03-16T08:17:35.135Z,100108.36
2019-03-16T08:20:05.044Z,100093.83
2019-03-16T08:22:34.224Z,100099.80
2019-03-16T08:25:03.530Z,100095.97
2019-03-16T08:27:32.649Z,100103.31
2019-03-16T08:30:01.834Z,100087.41
2019-03-16T08:32:31.136Z,100095.98
2019-03-16T08:35:01.043Z,100103.22
2019-03-16T08:37:30.409Z,100095.89
2019-03-16T08:39:59.499Z,100099.47
2019-03-16T08:42:28.545Z,100096.19
2019-03-16T08:44:57.654Z,100090.70
2019-03-16T08:47:26.748Z,100090.31
2019-03-16T08:49:55.838Z,100101.26
2019-03-16T08:52:24.929Z,100099.38
2019-03-16T08:54:54.085Z,100087.30
2019-03-16T08:57:23.354Z,100097.41
2019-03-16T08:59:52.642Z,100088.31
2019-03-16T09:02:21.938Z,100088.02
2019-03-16T09:04:50.986Z,100092.34
2019-03-16T09:07:20.275Z,100097.59
2019-03-16T09:09:49.514Z,100085.84
2019-03-16T09:12:18.806Z,100078.50
2019-03-16T09:14:48.043Z,100074.14
2019-03-16T09:17:17.162Z,100072.46
2019-03-16T09:19:46.281Z,100080.50
2019-03-16T09:22:15.627Z,100075.55
2019-03-16T09:24:44.855Z,100074.91
2019-03-16T09:27:14.210Z,100069.33
2019-03-16T09:29:43.441Z,100075.00
2019-03-16T09:32:12.534Z,100072.81
2019-03-16T09:34:41.708Z,100058.46
2019-03-16T09:37:10.868Z,100055.05
2019-03-16T09:39:40.105Z,100060.13
2019-03-16T09:42:09.333Z,100054.92
2019-03-16T09:44:38.581Z,100058.80
2019-03-16T09:47:07.908Z,100061.36
2019-03-16T09:49:37.194Z,100059.30
2019-03-16T09:52:06.506Z,100070.55
2019-03-16T09:54:35.814Z,100070.46
2019-03-16T09:57:05.032Z,100073.73
2019-03-16T09:59:34.318Z,100056.05
2019-03-16T10:02:03.430Z,100068.97
2019-03-16T10:04:32.629Z,100073.45
2019-03-16T10:07:01.761Z,100064.26
2019-03-16T10:09:30.791Z,100064.59
2019-03-16T10:12:00.112Z,100051.66
2019-03-16T10:14:29.204Z,100059.64
2019-03-16T10:16:58.401Z,100050.53
2019-03-16T10:19:27.635Z,100044.94
2019-03-16T10:21:57.031Z,100034.56
2019-03-16T10:24:27.427Z,100036.80
2019-03-16T10:26:57.180Z,100038.42
2019-03-16T10:29:26.529Z,100037.45
2019-03-16T10:31:55.735Z,100039.36
2019-03-16T10:34:26.800Z,100037.16
2019-03-16T10:36:56.219Z,100047.97
2019-03-16T10:39:25.334Z,100044.44
2019-03-16T10:41:54.653Z,100039.16
2019-03-16T10:44:23.770Z,100040.80
2019-03-16T10:46:53.149Z,100038.91
2019-03-16T10:49:22.243Z,100025.89
2019-03-16T10:51:51.374Z,100014.70
2019-03-16T10:54:20.660Z,100022.87
2019-03-16T10:56:51.033Z,100017.05
2019-03-16T10:59:20.228Z,100023.14
2019-03-16T11:01:49.452Z,100012.93
2019-03-16T11:04:18.623Z,100010.19
2019-03-16T11:06:47.804Z,100008.42
2019-03-16T11:09:17.017Z,100012.48
2019-03-16T11:11:46.172Z,100012.22
2019-03-16T11:14:15.404Z,100008.40
2019-03-16T11:16:44.658Z,100008.27
2019-03-16T11:19:13.891Z,99998.78
2019-03-16T11:21:43.194Z,100007.38
2019-03-16T11:24:12.339Z,99997.66
2019-03-16T11:26:41.453Z,99994.72
2019-03-16T11:29:10.750Z,99990.77
2019-03-16T11:31:40.319Z,99988.08
2019-03-16T11:34:09.519Z,99987.92
2019-03-16T11:36:38.822Z,100000.44
2019-03-16T11:39:09.231Z,99994.67
2019-03-16T11:41:38.335Z,99986.90
2019-03-16T11:44:07.487Z,99982.70
2019-03-16T11:46:36.543Z,99977.64
2019-03-16T11:49:05.739Z,99972.44
2019-03-16T11:51:34.864Z,99968.97
2019-03-16T11:54:04.229Z,99972.32
2019-03-16T11:56:33.314Z,99961.30
2019-03-16T11:59:02.520Z,99976.13
2019-03-16T12:01:31.602Z,99962.31
2019-03-16T12:04:00.762Z,99956.69
2019-03-16T12:06:30.072Z,99960.64
2019-03-16T12:08:59.613Z,99976.92
2019-03-16T12:11:28.739Z,99958.74
2019-03-16T12:13:57.860Z,99960.86
2019-03-16T12:16:27.238Z,99965.98
2019-03-16T12:18:56.404Z,99951.11
2019-03-16T12:21:25.526Z,99962.27
2019-03-16T12:23:54.629Z,99949.54
2019-03-16T12:26:23.922Z,99948.03
2019-03-16T12:28:53.024Z,99936.68
2019-03-16T12:31:22.420Z,99935.56
2019-03-16T12:33:52.020Z,99942.91
2019-03-16T12:36:21.125Z,99945.27
2019-03-16T12:38:50.244Z,99931.28
2019-03-16T12:41:19.363Z,99926.63
2019-03-16T12:43:48.586Z,99934.55
2019-03-16T12:46:17.720Z,99932.47
2019-03-16T12:48:46.813Z,99926.45
2019-03-16T12:51:16.117Z,99930.67
2019-03-16T12:53:45.579Z,99914.15
2019-03-16T12:56:14.825Z,99917.72
2019-03-16T12:58:44.086Z,99907.67
2019-03-16T13:01:13.216Z,99916.97
2019-03-16T13:03:42.331Z,99914.03
2019-03-16T13:06:11.577Z,99895.67
2019-03-16T13:08:40.647Z,99895.02
2019-03-16T13:11:10.073Z,99905.95
2019-03-16T13:13:39.207Z,99907.72
2019-03-16T13:16:08.290Z,99906.64
2019-03-16T13:18:37.469Z,99897.95
2019-03-16T13:21:06.786Z,99889.20
2019-03-16T13:23:35.893Z,99886.41
2019-03-16T13:26:05.039Z,99887.11
2019-03-16T13:28:35.713Z,99892.98
2019-03-16T13:31:05.073Z,99883.12
2019-03-16T13:33:34.171Z,99880.38
2019-03-16T13:36:03.232Z,99880.22
2019-03-16T13:38:32.534Z,99872.39
2019-03-16T13:41:01.664Z,99862.48
2019-03-16T13:43:30.976Z,99854.51
2019-03-16T13:46:00.129Z,99861.78
2019-03-16T13:48:29.269Z,99861.98
2019-03-16T13:50:58.639Z,99860.04
2019-03-16T13:53:27.728Z,99861.02
2019-03-16T13:55:57.347Z,99846.94
2019-03-16T13:58:26.505Z,99847.88
2019-03-16T14:00:55.532Z,99846.30
2019-03-16T14:03:24.739Z,99836.13
2019-03-16T14:05:54.034Z,99832.73
2019-03-16T14:08:23.114Z,99842.63
2019-03-16T14:10:53.225Z,99829.16
2019-03-16T14:13:24.931Z,99828.56
2019-03-16T14:15:54.722Z,99827.82
2019-03-16T14:18:23.801Z,99829.31
2019-03-16T14:20:54.820Z,99825.14
2019-03-16T14:23:25.778Z,99819.73
2019-03-16T14:25:55.287Z,99818.66
2019-03-16T14:28:24.584Z,99811.53
2019-03-16T14:30:54.220Z,99800.08
2019-03-16T14:33:23.908Z,99803.06
2019-03-16T14:35:53.222Z,99793.20
2019-03-16T14:38:22.278Z,99782.77
2019-03-16T14:40:51.732Z,99785.63
2019-03-16T14:43:20.857Z,99780.25
2019-03-16T14:45:50.005Z,99780.17
2019-03-16T14:48:19.221Z,99779.42
2019-03-16T14:50:48.593Z,99772.22
2019-03-16T14:53:17.940Z,99771.09
2019-03-16T14:55:47.042Z,99769.66
2019-03-16T14:58:16.121Z,99757.56
2019-03-16T15:00:45.345Z,99754.73
2019-03-16T15:03:14.582Z,99752.83
2019-03-16T15:05:45.938Z,99747.53
2019-03-16T15:08:15.241Z,99738.84
2019-03-16T15:10:44.442Z,99738.05
2019-03-16T15:13:13.571Z,99732.47
2019-03-16T15:15:42.695Z,99744.84
2019-03-16T15:18:11.889Z,99734.48
2019-03-16T15:20:40.983Z,99740.20
2019-03-16T15:23:10.167Z,99741.73
2019-03-16T15:25:39.733Z,99741.14
2019-03-16T15:28:08.845Z,99739.97
2019-03-16T15:30:49.818Z,99730.12
2019-03-16T15:33:09.278Z,99734.59
2019-03-16T15:35:38.489Z,99727.30
2019-03-16T15:38:07.567Z,99725.95
2019-03-16T15:40:38.380Z,99716.28
2019-03-16T15:43:08.000Z,99713.12
2019-03-16T15:45:37.239Z,99702.34
2019-03-16T15:48:06.521Z,99699.55
2019-03-16T15:50:35.821Z,99697.91
2019-03-16T15:53:05.010Z,99688.75
2019-03-16T15:55:34.227Z,99690.55
2019-03-16T15:58:08.327Z,99694.13
2019-03-16T16:00:34.457Z,99681.76
2019-03-16T16:03:04.084Z,99689.80
2019-03-16T16:05:33.253Z,99677.95
2019-03-16T16:08:02.499Z,99675.73
2019-03-16T16:10:31.557Z,99671.28
2019-03-16T16:13:02.507Z,99662.39
2019-03-16T16:15:31.724Z,99664.60
2019-03-16T16:18:00.932Z,99659.83
2019-03-16T16:20:30.035Z,99660.80
2019-03-16T16:22:59.533Z,99651.89
2019-03-16T16:25:28.693Z,99649.90
2019-03-16T16:27:58.082Z,99643.37
2019-03-16T16:30:27.109Z,99636.52
2019-03-16T16:32:56.269Z,99634.30
2019-03-16T16:35:25.593Z,99631.62
2019-03-16T16:37:54.720Z,99631.31
2019-03-16T16:40:24.868Z,99626.32
2019-03-16T16:42:54.320Z,99622.75
2019-03-16T16:45:23.574Z,99616.31
2019-03-16T16:47:52.862Z,99619.77
2019-03-16T16:50:22.045Z,99523.06
2019-03-16T16:52:51.139Z,99611.25
2019-03-16T16:55:20.267Z,99614.97
2019-03-16T16:57:49.509Z,99608.75
2019-03-16T17:00:18.777Z,99610.62
2019-03-16T17:02:47.963Z,99596.73
2019-03-16T17:05:17.114Z,99606.13
2019-03-16T17:07:46.323Z,99597.33
2019-03-16T17:10:15.695Z,99608.14
2019-03-16T17:12:44.827Z,99594.90
2019-03-16T17:15:14.165Z,99589.52
2019-03-16T17:17:43.281Z,99591.68
2019-03-16T17:20:12.875Z,99590.05
2019-03-16T17:22:42.191Z,99598.51
2019-03-16T17:25:12.108Z,99597.03
2019-03-16T17:27:41.234Z,99594.34
2019-03-16T17:30:16.464Z,99597.27
2019-03-16T17:32:45.830Z,99593.88
2019-03-16T17:35:15.125Z,99586.69
2019-03-16T17:37:44.837Z,99585.68
2019-03-16T17:40:14.327Z,99587.63
2019-03-16T17:42:43.699Z,99585.31
2019-03-16T17:45:12.856Z,99584.15
2019-03-16T17:47:42.042Z,99583.39
2019-03-16T17:50:11.788Z,99584.75
2019-03-16T17:52:41.135Z,99579.45
2019-03-16T17:55:10.716Z,99574.77
2019-03-16T17:57:40.139Z,99570.39
2019-03-16T18:00:12.410Z,99571.88
2019-03-16T18:02:51.187Z,99573.50
2019-03-16T18:05:15.307Z,99568.67
2019-03-16T18:07:45.147Z,99574.29
2019-03-16T18:10:15.298Z,99578.38
2019-03-16T18:12:44.952Z,99569.14
2019-03-16T18:15:14.045Z,99573.92
2019-03-16T18:17:43.186Z,99576.95
2019-03-16T18:20:12.902Z,99572.25
2019-03-16T18:22:42.239Z,99575.47
2019-03-16T18:25:11.712Z,99574.23
2019-03-16T18:27:41.301Z,99569.38
2019-03-16T18:30:12.354Z,99572.74
2019-03-16T18:32:41.573Z,99571.22
2019-03-16T18:35:11.025Z,99568.82
2019-03-16T18:37:40.140Z,99571.12
2019-03-16T18:40:11.224Z,99561.81
2019-03-16T18:42:40.517Z,99564.50
2019-03-16T18:45:11.988Z,99554.78
2019-03-16T18:47:41.094Z,99555.83
2019-03-16T18:50:10.244Z,99558.44
2019-03-16T18:52:39.330Z,99552.61
2019-03-16T18:55:09.695Z,99546.26
2019-03-16T18:57:38.762Z,99539.75
2019-03-16T19:00:08.916Z,99535.84
2019-03-16T19:02:38.836Z,99525.38
2019-03-16T19:05:08.890Z,99527.52
2019-03-16T19:07:38.809Z,99521.73
2019-03-16T19:10:09.900Z,99525.14
2019-03-16T19:12:39.129Z,99534.40
2019-03-16T19:15:10.118Z,99530.05
2019-03-16T19:17:39.444Z,99522.11
2019-03-16T19:20:09.886Z,99515.18
2019-03-16T19:22:39.265Z,99506.88
2019-03-16T19:25:10.068Z,99505.95
2019-03-16T19:27:39.710Z,99501.80
2019-03-16T19:30:10.911Z,99500.27
2019-03-16T19:32:40.424Z,99488.99
2019-03-16T19:35:09.723Z,99494.19
2019-03-16T19:37:38.997Z,99492.48
2019-03-16T19:40:11.226Z,99485.19
2019-03-16T19:42:40.337Z,99484.48
2019-03-16T19:45:09.641Z,99483.31
2019-03-16T19:47:38.765Z,99467.78
2019-03-16T19:50:31.970Z,99470.58
2019-03-16T19:54:11.260Z,99471.20
2019-03-16T19:57:45.685Z,99467.11
2019-03-16T20:01:04.113Z,99466.23
2019-03-16T20:04:14.193Z,99468.41
2019-03-16T20:07:18.845Z,99453.84
2019-03-16T20:11:05.944Z,99464.55
2019-03-16T20:14:06.888Z,99464.33
2019-03-16T20:16:36.406Z,99454.38
2019-03-16T20:19:05.718Z,99453.27
2019-03-16T20:21:35.356Z,99459.73
2019-03-16T20:24:04.767Z,99450.91
2019-03-16T20:26:33.849Z,99455.41
2019-03-16T20:29:03.029Z,99452.45
2019-03-16T20:31:32.252Z,99453.89
2019-03-16T20:34:01.535Z,99450.34
2019-03-16T20:36:31.673Z,99445.83
2019-03-16T20:39:03.227Z,99449.34
2019-03-16T20:41:36.524Z,99452.70
2019-03-16T20:44:04.148Z,99439.33
2019-03-16T20:46:33.359Z,99441.17
2019-03-16T20:49:03.466Z,99444.55
2019-03-16T20:51:33.507Z,99449.16
2019-03-16T20:54:02.644Z,99444.42
2019-03-16T20:56:31.854Z,99440.09
2019-03-16T20:59:01.164Z,99435.69
2019-03-16T21:01:30.553Z,99438.56
2019-03-16T21:04:00.424Z,99433.92
2019-03-16T21:06:29.749Z,99433.59
2019-03-16T21:09:03.432Z,99433.78
2019-03-16T21:11:30.257Z,99432.08
2019-03-16T21:13:59.378Z,99429.50
2019-03-16T21:16:28.584Z,99422.59
2019-03-16T21:18:57.953Z,99429.75
2019-03-16T21:21:27.068Z,99415.19
2019-03-16T21:23:56.279Z,99414.69
2019-03-16T21:26:25.401Z,99409.66
2019-03-16T21:28:54.649Z,99403.47
2019-03-16T21:31:23.762Z,99401.80
2019-03-16T21:33:53.117Z,99398.75
2019-03-16T21:36:22.235Z,99405.84
2019-03-16T21:38:51.547Z,99403.17
2019-03-16T21:41:20.688Z,99411.01
2019-03-16T21:43:49.857Z,99402.12
2019-03-16T21:46:19.226Z,99400.90
2019-03-16T21:48:48.311Z,99403.67
2019-03-16T21:51:17.706Z,99400.22
2019-03-16T21:53:46.871Z,99397.01
2019-03-16T21:56:15.994Z,99399.95
2019-03-16T21:58:45.350Z,99392.67
2019-03-16T22:01:14.503Z,99399.72
2019-03-16T22:03:43.751Z,99386.23
2019-03-16T22:06:13.004Z,99389.39
2019-03-16T22:08:42.256Z,99386.37
2019-03-16T22:11:11.469Z,99376.12
2019-03-16T22:13:40.681Z,99377.17
2019-03-16T22:16:11.799Z,99362.53
2019-03-16T22:18:41.034Z,99368.95
2019-03-16T22:21:10.269Z,99366.34
2019-03-16T22:23:39.543Z,99364.00
2019-03-16T22:26:08.770Z,99369.46
2019-03-16T22:28:37.963Z,99369.61
2019-03-16T22:31:07.158Z,99366.09
2019-03-16T22:33:36.313Z,99351.55
2019-03-16T22:36:05.625Z,99364.95
2019-03-16T22:38:34.948Z,99369.46
2019-03-16T22:41:04.181Z,99344.28
2019-03-16T22:43:33.622Z,99348.66
2019-03-16T22:46:02.768Z,99334.35
2019-03-16T22:48:32.081Z,99340.77
2019-03-16T22:51:01.474Z,99341.33
2019-03-16T22:53:30.621Z,99335.17
2019-03-16T22:55:59.908Z,99326.16
2019-03-16T22:58:29.146Z,99334.28
2019-03-16T23:00:58.666Z,99316.20
2019-03-16T23:03:28.161Z,99319.42
2019-03-16T23:05:57.273Z,99311.71
2019-03-16T23:08:26.487Z,99299.48
2019-03-16T23:10:55.613Z,99307.48
2019-03-16T23:13:24.910Z,99300.06
2019-03-16T23:15:54.223Z,99301.70
2019-03-16T23:18:23.351Z,99293.49
2019-03-16T23:20:52.703Z,99284.09
2019-03-16T23:23:21.823Z,99282.39
2019-03-16T23:25:51.024Z,99278.55
2019-03-16T23:28:20.226Z,99265.91
2019-03-16T23:30:49.652Z,99269.23
2019-03-16T23:33:18.695Z,99265.24
2019-03-16T23:35:47.831Z,99263.44
2019-03-16T23:38:17.129Z,99261.64
2019-03-16T23:40:46.549Z,99255.31
2019-03-16T23:43:15.787Z,99259.84
2019-03-16T23:45:45.007Z,99254.63
2019-03-16T23:48:14.365Z,99251.75
2019-03-16T23:50:43.491Z,99248.64
2019-03-16T23:53:12.559Z,99244.73
2019-03-16T23:55:41.677Z,99245.86
2019-03-16T23:58:10.820Z,99242.62
